Time;durP1;ratioP1;P1;durP2;ratioP2;P2;SDS_P1;SDS_P2;PMS_P1;PMS_P2;Temp;Humidity;BMP_temperature;BMP_pressure;BME280_temperature;BME280_humidity;BME280_pressure;Samples;Min_cycle;Max_cycle;Signal;HPM_P1;HPM_P2
2024/01/18 00:00:11;;;;;;;34.90;32.85;;;;;;;2.79;63.75;99264.22;5030740;28;20473;-72
2024/01/18 00:02:36;;;;;;;31.05;29.35;;;;;;;2.79;63.89;99262.38;5030896;28;20036;-72
2024/01/18 00:05:02;;;;;;;34.25;32.13;;;;;;;2.80;64.17;99268.53;5030956;28;20508;-74
2024/01/18 00:07:27;;;;;;;31.63;29.70;;;;;;;2.79;63.75;99275.69;5045033;28;20500;-74
2024/01/18 00:09:53;;;;;;;33.80;31.95;;;;;;;2.80;63.79;99281.88;5019490;28;20025;-72
2024/01/18 00:12:18;;;;;;;36.05;34.05;;;;;;;2.80;64.00;99287.22;5011276;28;20068;-74
2024/01/18 00:14:43;;;;;;;37.97;34.70;;;;;;;2.80;64.13;99289.88;5026099;28;20036;-71
2024/01/18 00:17:09;;;;;;;36.83;34.72;;;;;;;2.79;64.18;99286.38;4979803;28;20456;-72
2024/01/18 00:19:34;;;;;;;31.15;29.35;;;;;;;2.79;64.05;99297.03;5023514;28;20048;-72
2024/01/18 00:22:00;;;;;;;35.30;33.47;;;;;;;2.80;64.09;99303.22;5028334;28;20125;-73
2024/01/18 00:24:25;;;;;;;33.70;31.92;;;;;;;2.80;64.13;99303.22;5013090;28;20037;-73
2024/01/18 00:26:50;;;;;;;37.15;34.95;;;;;;;2.81;63.94;99307.50;5030258;28;20060;-73
2024/01/18 00:29:16;;;;;;;32.78;30.98;;;;;;;2.81;64.19;99310.16;5035170;28;20029;-73
2024/01/18 00:31:41;;;;;;;34.45;32.35;;;;;;;2.81;64.11;99310.97;5037370;28;20539;-72
2024/01/18 00:34:07;;;;;;;30.70;29.13;;;;;;;2.81;63.90;99300.28;5015552;28;20029;-72
2024/01/18 00:36:32;;;;;;;34.88;32.28;;;;;;;2.82;64.25;99301.09;5017056;28;20405;-74
2024/01/18 00:38:57;;;;;;;31.85;29.98;;;;;;;2.82;63.78;99311.78;5023699;28;20076;-73
2024/01/18 00:41:30;;;;;;;35.50;33.45;;;;;;;2.82;63.94;99319.78;5041490;28;20136;-72
2024/01/18 00:43:55;;;;;;;30.30;28.67;;;;;;;2.81;63.89;99312.81;5018401;28;20030;-75
2024/01/18 00:46:22;;;;;;;34.90;32.88;;;;;;;2.81;63.92;99312.81;5017998;28;20053;-73
2024/01/18 00:48:47;;;;;;;30.20;28.58;;;;;;;2.82;64.13;99322.44;5015360;28;20438;-73
2024/01/18 00:51:13;;;;;;;35.17;33.28;;;;;;;2.84;63.75;99316.88;5027932;28;20060;-73
2024/01/18 00:53:39;;;;;;;30.77;29.23;;;;;;;2.84;63.81;99319.56;5014153;28;20053;-74
2024/01/18 00:56:08;;;;;;;32.05;29.77;;;;;;;2.84;63.76;99317.69;5007106;28;20112;-72
2024/01/18 00:58:33;;;;;;;32.65;30.85;;;;;;;2.85;64.11;99322.00;5033773;28;20038;-75
2024/01/18 01:00:59;;;;;;;34.08;32.38;;;;;;;2.85;64.08;99314.00;5033845;28;20115;-73
2024/01/18 01:03:24;;;;;;;35.80;33.65;;;;;;;2.85;64.08;99321.16;5032104;28;20135;-72
2024/01/18 01:05:49;;;;;;;34.90;32.65;;;;;;;2.82;64.28;99327.78;5015935;28;20110;-73
2024/01/18 01:08:16;;;;;;;31.95;30.15;;;;;;;2.82;63.92;99327.78;5036493;28;20025;-75
2024/01/18 01:10:41;;;;;;;34.42;32.58;;;;;;;2.84;64.19;99324.88;5016662;28;20041;-71
2024/01/18 01:13:08;;;;;;;33.72;31.85;;;;;;;2.83;63.78;99329.41;4997594;28;20034;-72
2024/01/18 01:15:33;;;;;;;35.30;32.92;;;;;;;2.84;63.92;99336.38;5019187;28;20030;-75
2024/01/18 01:17:59;;;;;;;34.72;32.75;;;;;;;2.84;63.90;99330.22;5018672;28;20473;-72
2024/01/18 01:20:24;;;;;;;36.55;34.35;;;;;;;2.84;63.81;99336.38;5013950;28;20565;-74
2024/01/18 01:22:49;;;;;;;29.83;27.98;;;;;;;2.83;64.07;99333.94;5044436;28;20083;-73
2024/01/18 01:25:15;;;;;;;34.67;32.83;;;;;;;2.83;64.22;99336.59;5031875;28;20538;-72
2024/01/18 01:27:40;;;;;;;30.00;28.40;;;;;;;2.82;63.89;99346.44;5035166;28;20033;-71
2024/01/18 01:30:06;;;;;;;34.72;32.95;;;;;;;2.83;64.06;99348.09;5033002;28;20043;-73
2024/01/18 01:32:32;;;;;;;30.23;28.67;;;;;;;2.83;63.88;99353.41;5015164;28;20034;-72
2024/01/18 01:34:57;;;;;;;36.53;34.35;;;;;;;2.82;64.08;99362.44;5043931;28;20087;-72
2024/01/18 01:37:22;;;;;;;34.10;31.98;;;;;;;2.82;64.19;99367.78;5028685;28;20033;-74
2024/01/18 01:39:48;;;;;;;32.90;31.15;;;;;;;2.82;64.12;99365.09;5018556;28;20430;-73
2024/01/18 01:42:14;;;;;;;30.15;28.60;;;;;;;2.83;64.02;99369.41;5014168;28;20038;-71
2024/01/18 01:44:39;;;;;;;31.92;30.33;;;;;;;2.83;63.88;99365.94;5025329;28;20037;-74
2024/01/18 01:47:04;;;;;;;35.03;33.03;;;;;;;2.81;63.97;99363.50;5029513;28;20062;-73
2024/01/18 01:49:30;;;;;;;35.47;33.58;;;;;;;2.81;64.08;99364.28;5026986;28;20497;-73
2024/01/18 01:51:56;;;;;;;33.05;31.30;;;;;;;2.81;64.16;99372.28;5036685;28;20109;-71
2024/01/18 01:54:22;;;;;;;35.55;33.35;;;;;;;2.80;63.99;99367.22;5039069;28;20040;-71
2024/01/18 01:56:51;;;;;;;34.47;31.95;;;;;;;2.80;64.12;99367.22;5033579;28;20112;-72
2024/01/18 01:59:17;;;;;;;35.20;33.33;;;;;;;2.80;63.98;99369.88;5025026;28;20049;-71
2024/01/18 02:01:44;;;;;;;33.67;31.77;;;;;;;2.80;64.13;99377.88;5014212;28;20133;-71
2024/01/18 02:04:11;;;;;;;31.92;30.30;;;;;;;2.81;64.12;99376.81;5037728;28;20538;-71
2024/01/18 02:06:39;;;;;;;35.15;33.25;;;;;;;2.81;63.94;99376.81;5019584;28;20028;-71
2024/01/18 02:09:05;;;;;;;33.30;31.55;;;;;;;2.81;64.03;99374.16;5019488;28;20042;-71
2024/01/18 02:11:31;;;;;;;32.95;31.08;;;;;;;2.81;64.08;99363.50;5024534;28;20025;-72
2024/01/18 02:13:57;;;;;;;30.80;29.17;;;;;;;2.81;63.99;99358.97;5046266;28;20516;-72
2024/01/18 02:16:23;;;;;;;37.45;35.28;;;;;;;2.81;64.00;99363.50;5013774;28;20374;-75
2024/01/18 02:18:49;;;;;;;39.47;36.92;;;;;;;2.79;64.22;99369.03;5014514;28;20080;-74
2024/01/18 02:21:14;;;;;;;32.63;30.67;;;;;;;2.79;64.16;99371.69;5038493;28;20037;-71
2024/01/18 02:23:45;;;;;;;29.50;27.85;;;;;;;2.79;64.04;99366.38;5045361;28;20030;-72
2024/01/18 02:26:11;;;;;;;30.77;28.70;;;;;;;2.79;64.13;99373.56;5031770;28;20165;-73
2024/01/18 02:28:36;;;;;;;29.80;28.30;;;;;;;2.79;64.34;99377.03;5030674;28;20541;-74
2024/01/18 02:31:01;;;;;;;34.10;32.30;;;;;;;2.81;64.28;99382.16;5033917;28;20041;-72
2024/01/18 02:33:27;;;;;;;31.55;29.65;;;;;;;2.80;64.39;99384.00;5033844;28;20040;-72
2024/01/18 02:35:53;;;;;;;31.23;29.70;;;;;;;2.80;63.97;99380.53;5032643;28;20112;-74
2024/01/18 02:38:18;;;;;;;33.67;31.80;;;;;;;2.80;64.17;99377.88;5031850;28;20352;-79
2024/01/18 02:40:44;;;;;;;32.40;30.60;;;;;;;2.79;63.99;99374.38;5031885;28;20474;-72
2024/01/18 02:43:09;;;;;;;31.13;29.55;;;;;;;2.80;64.05;99370.69;5047284;28;20049;-73
2024/01/18 02:45:36;;;;;;;34.58;32.60;;;;;;;2.79;64.10;99377.03;5033679;28;20524;-72
2024/01/18 02:48:02;;;;;;;32.53;30.80;;;;;;;2.79;64.01;99373.56;5014898;28;20046;-75
2024/01/18 02:50:28;;;;;;;33.50;31.42;;;;;;;2.79;64.30;99377.03;5012942;28;20117;-71
2024/01/18 02:52:53;;;;;;;32.03;30.38;;;;;;;2.79;64.36;99371.69;5019483;28;20112;-73
2024/01/18 02:55:19;;;;;;;31.45;29.63;;;;;;;2.78;63.91;99378.09;5044175;28;20465;-75
2024/01/18 02:57:44;;;;;;;33.05;31.35;;;;;;;2.79;64.18;99381.56;5014308;28;20037;-72
2024/01/18 03:00:13;;;;;;;32.88;31.13;;;;;;;2.79;63.92;99381.56;5028300;28;20036;-72
2024/01/18 03:02:38;;;;;;;33.63;31.70;;;;;;;2.79;64.17;99384.22;5016779;28;20045;-72
2024/01/18 03:05:05;;;;;;;31.17;29.40;;;;;;;2.78;63.91;99380.75;5011029;28;20473;-72
2024/01/18 03:07:31;;;;;;;34.45;32.35;;;;;;;2.79;64.09;99394.91;5014711;28;20153;-72
2024/01/18 03:09:56;;;;;;;32.17;30.25;;;;;;;2.79;64.06;99393.03;5013397;28;20053;-72
2024/01/18 03:12:21;;;;;;;31.65;29.73;;;;;;;2.79;64.14;99401.03;5015828;28;20037;-73
2024/01/18 03:14:47;;;;;;;34.15;32.35;;;;;;;2.79;64.35;99405.56;5018880;28;20469;-71
2024/01/18 03:17:12;;;;;;;35.75;33.85;;;;;;;2.79;64.30;99401.03;5025168;28;20066;-72
2024/01/18 03:19:38;;;;;;;34.03;32.05;;;;;;;2.79;64.05;99406.38;5028788;28;20029;-71
2024/01/18 03:22:03;;;;;;;31.30;29.40;;;;;;;2.78;64.11;99404.75;5013770;28;20037;-71
2024/01/18 03:24:29;;;;;;;32.88;30.98;;;;;;;2.78;64.06;99399.41;5035435;28;20030;-71
2024/01/18 03:26:54;;;;;;;34.45;32.75;;;;;;;2.77;64.26;99405.81;5034834;28;20434;-74
2024/01/18 03:29:19;;;;;;;31.13;29.23;;;;;;;2.78;63.88;99409.28;5011527;28;20034;-72
2024/01/18 03:31:45;;;;;;;35.70;33.90;;;;;;;2.77;63.99;99405.81;5034450;28;20037;-75
2024/01/18 03:34:10;;;;;;;32.78;30.83;;;;;;;2.77;64.02;99404.97;5030833;28;20538;-72
2024/01/18 03:36:36;;;;;;;30.92;29.13;;;;;;;2.77;64.16;99415.63;5031527;28;20045;-71
2024/01/18 03:39:01;;;;;;;33.28;31.45;;;;;;;2.76;64.47;99414.81;5025497;28;20384;-70
2024/01/18 03:41:27;;;;;;;33.10;31.35;;;;;;;2.76;64.33;99416.69;5010449;28;20080;-74
2024/01/18 03:43:52;;;;;;;36.35;34.33;;;;;;;2.75;64.19;99426.53;5012973;28;20030;-71
2024/01/18 03:46:17;;;;;;;28.75;27.30;;;;;;;2.75;64.18;99413.22;5041378;28;20041;-72
2024/01/18 03:48:43;;;;;;;36.72;34.67;;;;;;;2.76;64.43;99425.50;5035521;28;20025;-72
2024/01/18 03:51:08;;;;;;;31.77;30.17;;;;;;;2.75;64.22;99428.41;5040030;28;20183;-74
2024/01/18 03:53:36;;;;;;;36.22;34.22;;;;;;;2.75;64.20;99450.53;5010175;28;20048;-72
2024/01/18 03:56:02;;;;;;;32.97;31.33;;;;;;;2.75;63.92;99447.88;5012773;28;20045;-72
2024/01/18 03:58:27;;;;;;;31.80;30.05;;;;;;;2.75;64.06;99447.06;5014656;28;20756;-75
2024/01/18 04:00:52;;;;;;;32.13;30.42;;;;;;;2.75;64.11;99452.41;5021745;28;20076;-71
2024/01/18 04:03:19;;;;;;;35.20;33.15;;;;;;;2.76;63.87;99448.69;4997563;28;20033;-71
2024/01/18 04:05:44;;;;;;;35.20;33.17;;;;;;;2.75;64.21;99447.06;5029330;28;20032;-72
2024/01/18 04:08:09;;;;;;;32.70;30.85;;;;;;;2.76;64.37;99448.69;5022578;28;20047;-72
2024/01/18 04:10:35;;;;;;;34.55;32.35;;;;;;;2.74;64.04;99443.56;5013204;28;20544;-72
2024/01/18 04:13:01;;;;;;;33.50;31.88;;;;;;;2.74;64.36;99438.22;5021941;28;20022;-71
2024/01/18 04:15:26;;;;;;;34.97;33.20;;;;;;;2.74;64.05;99448.91;5030127;28;20034;-72
2024/01/18 04:17:52;;;;;;;29.15;27.65;;;;;;;2.74;64.22;99446.22;5012513;28;20099;-70
2024/01/18 04:20:21;;;;;;;32.80;31.17;;;;;;;2.74;64.04;99443.56;5031821;28;20037;-70
2024/01/18 04:22:47;;;;;;;33.53;31.63;;;;;;;2.74;64.02;99450.75;5010233;28;20030;-71
2024/01/18 04:25:12;;;;;;;33.53;31.75;;;;;;;2.75;64.20;99447.06;4994862;28;20068;-72
2024/01/18 04:27:38;;;;;;;35.17;32.85;;;;;;;2.73;64.38;99447.28;5000456;28;20034;-71
2024/01/18 04:30:04;;;;;;;28.48;27.05;;;;;;;2.73;64.15;99452.59;5018386;28;20045;-71
2024/01/18 04:32:30;;;;;;;35.25;33.45;;;;;;;2.72;64.24;99450.16;5040772;28;20032;-71
2024/01/18 04:34:55;;;;;;;34.22;32.53;;;;;;;2.71;64.00;99454.69;5017563;28;20029;-71
2024/01/18 04:37:21;;;;;;;30.02;28.42;;;;;;;2.71;64.12;99462.69;5013124;28;20026;-72
2024/01/18 04:39:46;;;;;;;35.55;33.55;;;;;;;2.72;64.43;99471.47;5012859;28;20041;-71
2024/01/18 04:42:11;;;;;;;33.30;31.63;;;;;;;2.72;64.09;99476.81;5018722;28;20485;-71
2024/01/18 04:44:39;;;;;;;32.60;30.92;;;;;;;2.71;64.19;99480.53;5032204;28;20036;-72
2024/01/18 04:47:05;;;;;;;33.30;31.70;;;;;;;2.70;64.52;99476.25;4997554;28;20060;-71
2024/01/18 04:49:31;;;;;;;31.52;29.95;;;;;;;2.69;64.18;99482.59;5013386;28;20359;-72
2024/01/18 04:51:57;;;;;;;29.20;27.75;;;;;;;2.69;64.14;99486.06;5045509;28;20091;-71
2024/01/18 04:54:22;;;;;;;32.95;31.25;;;;;;;2.70;64.09;99494.91;5035170;28;20041;-72
2024/01/18 04:56:48;;;;;;;30.35;28.65;;;;;;;2.69;64.20;99504.75;5030823;28;20033;-71
2024/01/18 04:59:13;;;;;;;33.28;31.67;;;;;;;2.68;64.18;99503.13;5030306;28;20451;-71
2024/01/18 05:01:40;;;;;;;33.47;31.63;;;;;;;2.68;64.49;99508.47;5028341;28;20076;-72
2024/01/18 05:04:06;;;;;;;28.58;27.08;;;;;;;2.69;64.01;99511.94;5029630;28;20041;-71
2024/01/18 05:06:31;;;;;;;32.63;31.05;;;;;;;2.69;64.14;99499.41;5028792;28;20043;-70
2024/01/18 05:08:57;;;;;;;32.83;31.20;;;;;;;2.69;64.10;99501.25;5029953;28;20049;-71
2024/01/18 05:11:22;;;;;;;32.30;30.60;;;;;;;2.68;64.09;99500.47;5030619;28;20021;-72
2024/01/18 05:13:48;;;;;;;31.33;29.60;;;;;;;2.69;64.23;99509.25;5028237;28;20541;-72
2024/01/18 05:16:13;;;;;;;29.55;28.05;;;;;;;2.68;64.29;99515.66;5032855;28;20033;-72
2024/01/18 05:18:39;;;;;;;31.83;30.17;;;;;;;2.66;64.17;99507.84;5037414;28;20046;-71
2024/01/18 05:21:04;;;;;;;33.55;31.73;;;;;;;2.66;64.06;99510.53;5013923;28;20056;-72
2024/01/18 05:23:30;;;;;;;30.25;28.75;;;;;;;2.65;64.42;99513.44;5014894;28;20075;-71
2024/01/18 05:25:55;;;;;;;30.80;29.02;;;;;;;2.66;64.11;99513.19;5014206;28;20120;-71
2024/01/18 05:28:20;;;;;;;32.78;31.17;;;;;;;2.66;63.88;99517.72;5041328;28;20094;-71
2024/01/18 05:30:46;;;;;;;33.22;31.35;;;;;;;2.65;64.14;99516.91;5035218;28;20104;-71
2024/01/18 05:33:11;;;;;;;30.23;28.60;;;;;;;2.64;64.04;99523.25;5023899;28;20401;-72
2024/01/18 05:35:37;;;;;;;34.42;32.72;;;;;;;2.65;63.96;99532.09;5013923;28;20033;-72
2024/01/18 05:38:03;;;;;;;29.52;28.02;;;;;;;2.63;64.17;99537.63;5012496;28;20033;-71
2024/01/18 05:40:29;;;;;;;31.55;29.98;;;;;;;2.63;63.77;99540.28;4997083;28;20050;-72
2024/01/18 05:42:54;;;;;;;30.60;28.90;;;;;;;2.63;64.08;99534.97;5014502;28;20058;-71
2024/01/18 05:45:20;;;;;;;31.52;29.90;;;;;;;2.63;64.11;99539.50;5035411;28;20108;-71
2024/01/18 05:47:46;;;;;;;32.25;30.23;;;;;;;2.60;63.91;99549.56;5015032;28;20445;-70
2024/01/18 05:50:12;;;;;;;34.67;32.97;;;;;;;2.62;64.08;99553.84;5028396;28;20052;-71
2024/01/18 05:52:38;;;;;;;30.27;28.73;;;;;;;2.60;64.21;99554.88;5032480;28;20034;-72
2024/01/18 05:55:04;;;;;;;30.33;28.83;;;;;;;2.61;63.86;99558.34;5047342;28;20079;-71
2024/01/18 05:57:30;;;;;;;28.90;27.08;;;;;;;2.60;63.94;99557.53;5035179;28;20041;-71
2024/01/18 05:59:55;;;;;;;35.45;33.45;;;;;;;2.60;63.97;99564.72;5032989;28;20481;-72
2024/01/18 06:02:20;;;;;;;29.98;28.17;;;;;;;2.59;63.92;99563.91;5024155;28;20468;-71
2024/01/18 06:04:47;;;;;;;32.25;30.58;;;;;;;2.59;64.01;99565.75;5025028;28;20157;-71
2024/01/18 06:07:13;;;;;;;33.33;31.63;;;;;;;2.59;64.19;99571.09;5026119;28;20082;-71
2024/01/18 06:09:38;;;;;;;29.88;28.40;;;;;;;2.59;64.08;99576.41;5032230;28;20389;-71
2024/01/18 06:12:04;;;;;;;29.67;28.15;;;;;;;2.59;63.93;99574.56;5015479;28;20041;-71
2024/01/18 06:14:29;;;;;;;30.60;28.92;;;;;;;2.59;63.95;99574.56;5032751;28;20132;-71
2024/01/18 06:16:55;;;;;;;28.65;27.02;;;;;;;2.58;63.96;99575.59;5015425;28;20038;-72
2024/01/18 06:19:20;;;;;;;30.27;28.77;;;;;;;2.58;63.72;99583.59;5036341;28;20409;-72
2024/01/18 06:21:46;;;;;;;26.25;24.95;;;;;;;2.58;63.86;99593.47;5037761;28;20045;-72
2024/01/18 06:24:11;;;;;;;28.95;27.55;;;;;;;2.56;64.05;99601.66;5032280;28;20037;-73
2024/01/18 06:26:38;;;;;;;28.83;27.33;;;;;;;2.56;63.90;99592.84;5031162;28;20032;-71
2024/01/18 06:29:04;;;;;;;30.95;29.15;;;;;;;2.55;63.90;99596.56;5033384;28;20025;-73
2024/01/18 06:31:29;;;;;;;30.00;28.52;;;;;;;2.55;64.21;99609.91;5026213;28;20469;-74
2024/01/18 06:33:56;;;;;;;36.88;34.85;;;;;;;2.54;63.84;99611.72;5048686;28;20087;-71
2024/01/18 06:36:22;;;;;;;27.48;26.08;;;;;;;2.54;63.87;99621.56;5013345;28;20478;-71
2024/01/18 06:38:49;;;;;;;30.17;28.60;;;;;;;2.53;63.91;99628.75;5012024;28;20073;-71
2024/01/18 06:41:15;;;;;;;30.65;28.95;;;;;;;2.52;64.24;99624.47;5019414;28;20030;-72
2024/01/18 06:43:40;;;;;;;31.63;30.02;;;;;;;2.53;63.96;99627.94;5031420;28;20397;-72
2024/01/18 06:46:16;;;;;;;36.47;34.33;;;;;;;2.52;63.77;99616.47;5031254;28;20031;-72
2024/01/18 06:48:42;;;;;;;30.08;28.50;;;;;;;2.50;63.50;99618.53;5028046;28;20493;-71
2024/01/18 06:51:08;;;;;;;34.83;33.03;;;;;;;2.49;63.70;99629.41;5026387;28;20042;-72
2024/01/18 06:53:34;;;;;;;26.30;25.00;;;;;;;2.48;63.75;99628.59;5013231;28;20018;-71
2024/01/18 06:55:59;;;;;;;32.78;30.98;;;;;;;2.48;63.76;99633.94;5013445;28;20091;-72
2024/01/18 06:58:25;;;;;;;30.15;28.65;;;;;;;2.47;63.56;99636.78;5011890;28;20072;-76
2024/01/18 07:00:50;;;;;;;32.13;30.55;;;;;;;2.48;63.59;99641.13;5028039;28;20042;-73
2024/01/18 07:03:16;;;;;;;33.35;31.67;;;;;;;2.47;63.57;99642.13;5018240;28;20098;-71
2024/01/18 07:05:41;;;;;;;30.90;29.35;;;;;;;2.46;63.86;99651.16;5022416;28;20483;-71
2024/01/18 07:08:07;;;;;;;32.30;30.50;;;;;;;2.45;63.65;99655.69;5013333;28;20046;-71
2024/01/18 07:10:32;;;;;;;31.52;29.85;;;;;;;2.45;63.43;99658.34;5012404;28;20143;-71
2024/01/18 07:12:58;;;;;;;33.38;31.50;;;;;;;2.45;63.52;99660.22;5016026;28;20029;-71
2024/01/18 07:15:23;;;;;;;32.28;30.70;;;;;;;2.43;63.82;99667.59;5030868;28;20440;-72
2024/01/18 07:17:48;;;;;;;32.08;30.48;;;;;;;2.43;63.65;99672.94;5040292;28;20044;-71
2024/01/18 07:20:14;;;;;;;29.45;27.98;;;;;;;2.43;63.51;99672.94;5023846;28;20041;-71
2024/01/18 07:22:40;;;;;;;29.45;27.95;;;;;;;2.42;63.44;99681.94;5012268;28;20076;-72
2024/01/18 07:25:05;;;;;;;32.67;30.88;;;;;;;2.41;63.73;99682.97;5028534;28;20518;-70
2024/01/18 07:27:31;;;;;;;29.95;28.45;;;;;;;2.41;63.70;99693.66;5023979;28;20041;-70
2024/01/18 07:29:57;;;;;;;26.92;25.45;;;;;;;2.38;63.52;99687.72;5023781;28;20037;-71
2024/01/18 07:32:23;;;;;;;32.08;30.42;;;;;;;2.40;63.46;99692.84;5028762;28;20041;-72
2024/01/18 07:34:48;;;;;;;28.95;27.45;;;;;;;2.38;63.62;99697.56;5036829;28;20041;-71
2024/01/18 07:37:14;;;;;;;28.90;27.40;;;;;;;2.37;63.71;99704.75;5031067;28;20791;-72
2024/01/18 07:39:40;;;;;;;31.25;29.65;;;;;;;2.37;63.51;99702.06;5030823;28;20045;-72
2024/01/18 07:42:07;;;;;;;30.75;28.98;;;;;;;2.38;63.69;99697.56;5038166;28;20091;-72
2024/01/18 07:44:33;;;;;;;28.08;26.65;;;;;;;2.35;63.41;99698.81;5035327;28;20057;-71
2024/01/18 07:46:58;;;;;;;29.27;27.73;;;;;;;2.35;63.38;99704.13;5024496;28;20152;-72
2024/01/18 07:49:24;;;;;;;30.52;28.92;;;;;;;2.37;63.43;99714.59;5019695;28;20075;-71
2024/01/18 07:51:50;;;;;;;29.95;28.45;;;;;;;2.35;63.56;99719.31;5031605;28;20116;-72
2024/01/18 07:54:15;;;;;;;32.25;30.63;;;;;;;2.33;63.46;99724.84;5018595;28;20410;-72
2024/01/18 07:56:41;;;;;;;30.67;29.08;;;;;;;2.34;63.63;99738.97;5030101;28;20072;-72
2024/01/18 07:59:07;;;;;;;29.70;28.00;;;;;;;2.33;63.58;99734.69;5029564;28;20477;-71
2024/01/18 08:01:32;;;;;;;29.88;28.38;;;;;;;2.32;63.32;99744.53;5033037;28;20119;-71
2024/01/18 08:03:59;;;;;;;30.98;29.38;;;;;;;2.32;63.39;99749.88;5044851;28;20056;-71
2024/01/18 08:06:24;;;;;;;30.73;29.02;;;;;;;2.32;63.55;99749.06;5021296;28;20143;-73
2024/01/18 08:08:50;;;;;;;29.50;27.98;;;;;;;2.31;63.27;99753.53;5035669;28;20511;-72
2024/01/18 08:11:15;;;;;;;33.67;31.75;;;;;;;2.30;63.61;99759.91;5042226;28;20132;-72
2024/01/18 08:13:41;;;;;;;32.92;31.23;;;;;;;2.29;63.57;99763.63;5021390;28;20044;-72
2024/01/18 08:16:10;;;;;;;30.27;28.58;;;;;;;2.30;63.57;99769.75;5011193;28;20038;-72
2024/01/18 08:18:39;;;;;;;28.38;26.92;;;;;;;2.29;63.46;99766.28;5019574;28;20507;-71
2024/01/18 08:21:04;;;;;;;30.17;28.45;;;;;;;2.28;63.43;99772.63;5033644;28;20022;-71
2024/01/18 08:23:30;;;;;;;26.55;25.15;;;;;;;2.29;63.49;99781.44;5014036;28;20033;-70
2024/01/18 08:25:55;;;;;;;29.35;27.85;;;;;;;2.28;63.21;99777.97;5014311;28;20030;-73
2024/01/18 08:28:21;;;;;;;29.55;27.95;;;;;;;2.28;63.52;99779.81;5030484;28;20036;-72
2024/01/18 08:30:47;;;;;;;29.55;27.98;;;;;;;2.28;63.40;99780.63;5029299;28;20026;-71
2024/01/18 08:33:13;;;;;;;32.65;30.83;;;;;;;2.27;63.50;99789.66;5028404;28;20500;-72
2024/01/18 08:35:40;;;;;;;30.13;28.58;;;;;;;2.27;63.32;99802.16;5018367;28;20045;-72
2024/01/18 08:38:05;;;;;;;31.88;30.15;;;;;;;2.26;63.26;99800.53;5027771;28;20063;-71
2024/01/18 08:40:31;;;;;;;30.80;29.25;;;;;;;2.27;63.51;99808.31;5029963;28;20120;-71
2024/01/18 08:42:57;;;;;;;29.67;28.17;;;;;;;2.27;63.44;99802.16;5013377;28;20044;-73
2024/01/18 08:45:23;;;;;;;26.27;24.88;;;;;;;2.25;63.55;99804.22;5013550;28;20477;-71
2024/01/18 08:47:48;;;;;;;30.20;28.60;;;;;;;2.25;63.49;99815.69;5032305;28;20057;-71
2024/01/18 08:50:17;;;;;;;32.40;30.42;;;;;;;2.25;63.20;99820.22;5018422;28;20521;-71
2024/01/18 08:52:43;;;;;;;30.73;28.98;;;;;;;2.25;63.09;99825.53;5033676;28;20378;-72
2024/01/18 08:55:08;;;;;;;26.00;24.48;;;;;;;2.23;63.01;99820.41;5045751;28;20036;-70
2024/01/18 08:57:34;;;;;;;29.05;27.55;;;;;;;2.24;63.15;99834.53;5032047;28;20049;-72
2024/01/18 09:00:00;;;;;;;31.40;29.70;;;;;;;2.24;63.26;99840.69;5028008;28;20436;-71
2024/01/18 09:02:26;;;;;;;35.03;33.22;;;;;;;2.23;63.17;99832.91;5032214;28;20104;-75
2024/01/18 09:04:52;;;;;;;31.90;30.20;;;;;;;2.22;63.47;99839.25;5031402;28;20119;-72
2024/01/18 09:07:17;;;;;;;28.77;27.08;;;;;;;2.22;63.40;99842.78;5020108;28;20120;-73
2024/01/18 09:09:44;;;;;;;31.42;29.65;;;;;;;2.22;63.22;99855.25;5023948;28;20033;-73
2024/01/18 09:12:10;;;;;;;34.50;32.35;;;;;;;2.23;63.36;99860.38;5032498;28;20039;-72
2024/01/18 09:14:36;;;;;;;32.70;30.83;;;;;;;2.23;63.20;99860.38;5030431;28;20041;-73
2024/01/18 09:17:01;;;;;;;29.17;27.63;;;;;;;2.24;63.21;99869.19;5028583;28;20088;-73
2024/01/18 09:19:26;;;;;;;29.75;27.83;;;;;;;2.23;63.45;99868.38;5019939;28;20493;-73
2024/01/18 09:21:52;;;;;;;31.70;30.10;;;;;;;2.23;63.13;99881.69;5019098;28;20025;-72
2024/01/18 09:24:19;;;;;;;32.85;30.98;;;;;;;2.23;63.42;99888.88;5042805;28;20040;-73
2024/01/18 09:26:44;;;;;;;31.13;29.50;;;;;;;2.21;63.38;99891.75;5011958;28;20527;-73
2024/01/18 09:29:10;;;;;;;30.88;29.15;;;;;;;2.22;63.32;99898.72;5053890;28;20033;-72
2024/01/18 09:31:35;;;;;;;28.17;26.70;;;;;;;2.21;63.21;99898.91;5027383;28;20469;-72
2024/01/18 09:34:00;;;;;;;31.98;30.08;;;;;;;2.20;63.06;99906.09;5025007;28;20466;-72
2024/01/18 09:36:26;;;;;;;31.52;29.67;;;;;;;2.19;63.54;99911.63;5033718;28;20068;-72
2024/01/18 09:38:51;;;;;;;29.88;28.25;;;;;;;2.17;63.38;99909.19;5031892;28;20469;-72
2024/01/18 09:41:18;;;;;;;29.02;27.33;;;;;;;2.16;63.20;99911.00;5031917;28;20034;-73
2024/01/18 09:43:45;;;;;;;31.92;29.77;;;;;;;2.17;63.20;99920.66;5015748;28;20500;-72
2024/01/18 09:46:11;;;;;;;31.77;30.15;;;;;;;2.18;63.22;99924.13;5027827;28;20038;-74
2024/01/18 09:48:37;;;;;;;32.00;30.20;;;;;;;2.17;63.53;99923.31;5026046;28;20692;-72
2024/01/18 09:51:09;;;;;;;31.65;29.80;;;;;;;2.16;63.10;99932.31;5023467;28;20117;-72
2024/01/18 09:53:36;;;;;;;34.72;32.63;;;;;;;2.15;63.10;99932.53;5012845;28;20092;-73
2024/01/18 09:56:12;;;;;;;33.13;31.13;;;;;;;2.15;63.12;99938.69;5021200;28;20493;-72
2024/01/18 09:58:38;;;;;;;31.50;29.80;;;;;;;2.15;62.97;99949.34;5031826;28;20123;-74
2024/01/18 10:01:05;;;;;;;28.10;26.60;;;;;;;2.16;63.45;99950.16;5029205;28;20478;-74
2024/01/18 10:03:30;;;;;;;34.15;31.95;;;;;;;2.14;62.97;99950.38;5031443;28;20378;-73
2024/01/18 10:05:56;;;;;;;27.60;26.13;;;;;;;2.13;63.09;99951.38;5027334;28;20046;-74
2024/01/18 10:08:22;;;;;;;29.60;27.70;;;;;;;2.13;63.03;99962.06;5021078;28;20037;-72
2024/01/18 10:10:47;;;;;;;31.95;30.23;;;;;;;2.12;63.01;99971.09;5012487;28;20382;-73
2024/01/18 10:13:16;;;;;;;28.30;26.77;;;;;;;2.12;62.99;99981.75;5011087;28;20057;-76
2024/01/18 10:15:42;;;;;;;33.80;32.00;;;;;;;2.09;63.24;99987.47;5037618;28;20036;-72
2024/01/18 10:18:07;;;;;;;31.35;29.65;;;;;;;2.09;63.31;99991.97;5034957;28;20371;-73
2024/01/18 10:20:33;;;;;;;30.23;28.52;;;;;;;2.08;63.29;99993.81;5014036;28;20100;-72
2024/01/18 10:22:59;;;;;;;27.92;26.35;;;;;;;2.08;63.04;99995.66;5046409;28;20044;-72
2024/01/18 10:25:26;;;;;;;32.30;30.10;;;;;;;2.07;63.34;100002.03;5020449;28;20057;-73
2024/01/18 10:27:55;;;;;;;33.22;31.48;;;;;;;2.06;62.97;100009.19;5011988;28;20025;-72
2024/01/18 10:30:22;;;;;;;34.33;32.22;;;;;;;2.06;62.95;100005.69;5010053;28;20045;-73
2024/01/18 10:32:48;;;;;;;29.90;28.33;;;;;;;2.05;62.91;100006.75;5017865;28;20029;-73
2024/01/18 10:35:25;;;;;;;31.02;29.42;;;;;;;2.05;63.36;100012.88;5018616;28;20139;-73
2024/01/18 10:38:04;;;;;;;27.88;26.38;;;;;;;2.05;62.99;100012.06;5030424;28;20091;-71
2024/01/18 10:40:38;;;;;;;34.08;32.08;;;;;;;2.04;63.42;100013.91;5030807;28;20041;-72
2024/01/18 10:43:05;;;;;;;26.33;25.00;;;;;;;2.03;63.09;100008.78;5032020;28;20026;-72
2024/01/18 10:45:31;;;;;;;31.20;29.13;;;;;;;2.02;63.16;100018.63;5013018;28;20122;-73
2024/01/18 10:47:58;;;;;;;27.55;26.00;;;;;;;2.02;63.02;100018.63;5029914;28;20541;-73
2024/01/18 10:50:24;;;;;;;33.50;30.50;;;;;;;2.02;63.46;100015.16;5029517;28;20029;-72
2024/01/18 10:52:51;;;;;;;31.70;29.80;;;;;;;2.03;63.35;100024.75;5031497;28;20056;-73
2024/01/18 10:55:17;;;;;;;31.48;29.73;;;;;;;2.02;63.17;100031.94;5036255;28;20049;-76
2024/01/18 10:57:43;;;;;;;30.60;28.90;;;;;;;2.04;63.42;100037.06;5027475;28;20040;-72
2024/01/18 11:00:08;;;;;;;32.08;30.10;;;;;;;2.04;63.20;100037.88;5013700;28;20091;-72
2024/01/18 11:02:41;;;;;;;34.58;31.55;;;;;;;2.04;63.71;100043.22;5030319;28;20426;-73
2024/01/18 11:05:20;;;;;;;31.42;29.60;;;;;;;2.04;63.42;100051.22;5027514;28;20036;-73
2024/01/18 11:07:46;;;;;;;32.15;30.35;;;;;;;2.04;63.55;100045.03;5010663;28;20073;-71
2024/01/18 11:10:12;;;;;;;30.35;28.60;;;;;;;2.05;63.56;100054.69;5026834;28;20491;-73
2024/01/18 11:12:49;;;;;;;33.90;31.92;;;;;;;2.05;63.47;100058.16;5023708;28;20037;-72
2024/01/18 11:15:16;;;;;;;31.42;29.73;;;;;;;2.05;63.67;100066.16;5030721;28;20033;-72
2024/01/18 11:17:58;;;;;;;29.98;28.23;;;;;;;2.06;63.44;100072.31;5012165;28;20030;-73